Ever Decent — 9V7952 — position and weather

sailwx.info

Track history (hours):
 
Tides and Currents Weather Stations Pressure Air Temp Water Temp Dewpoint Dewpoint Depression Visibility Wind Speed Wind Dir Waves Ship Positions

Ever Decent

Last reported at 2016-Aug-24 13:00 UTC. Time now 2016-Aug-24 21:32 UTC.
Position N 02°42' E 090°06'.

Length 294 m; draft 12.1 m.

Type: Ship (hazmat cat D). MMSI: 564904000.

Wind from 260 at 27 knots

Waves 1.5 meters (5 feet), 9 second period

Barometer 1008.0 mb
Air temperature 28.0 ° C
Visibility: greater than 5.4 NM
Dewpoint 26.7 ° C
Water temperature 26.0 ° C

Date/timePositionNaut miles runAvg speedWind from/ knotsBaromVisibWave heightAir tempDewpointWater temp
2016-Aug-24 13:00N 02°42' E 090°06'8514.2 260 / 271008.0 5.4 1.528.026.726.0
2016-Aug-24 07:00N 03°36' E 091°12'10517.5 270 / 281007.0 5.4 3.028.025.328.0
2016-Aug-24 01:00N 04°30' E 092°42'6512.9 260 / 281007.0 5.4 3.527.025.7
2016-Aug-23 20:00N 05°06' E 093°36'18012.8 270 / 261007.0 5.4 3.027.025.728.0
2016-Aug-23 06:00N 05°54' E 096°30'   270 / 281008.010.8 3.030.027.429.0
2016-Aug-20 07:28N 01°54' E 102°24'1515.7
2016-Aug-20 06:32N 01°48' E 102°38'7411.4
2016-Aug-20 00:03N 01°17' E 103°45'0 0.3
2016-Aug-19 23:11N 01°17' E 103°46'0 0.1
2016-Aug-19 22:29N 01°17' E 103°45'0 0.0
2016-Aug-19 19:21N 01°17' E 103°45'0 0.0
2016-Aug-19 13:30N 01°17' E 103°45'0 0.0
2016-Aug-19 12:30N 01°17' E 103°45'0 0.0
2016-Aug-19 11:30N 01°17' E 103°45'0 0.1
2016-Aug-19 10:24N 01°17' E 103°46'0 0.2
2016-Aug-19 09:33N 01°17' E 103°45'2 2.1
2016-Aug-19 08:33N 01°15' E 103°46'5 4.7
2016-Aug-19 07:33N 01°12' E 103°50'7 7.5
2016-Aug-19 06:33N 01°15' E 103°57'9 9.0
2016-Aug-19 05:31N 01°17' E 104°06'34014.5
2016-Aug-18 06:00N 06°06' E 107°06'31915.9 200 / 241006.010.8 3.030.027.429.0
2016-Aug-17 10:00N 10°48' E 109°36'6315.6 230 / 241004.0 5.4 3.029.026.3
2016-Aug-17 06:00N 11°48' E 109°54'37616.4 210 / 381002.0 5.4 4.028.025.328.0
2016-Aug-16 07:00N 17°48' E 111°48'29315.9 230 / 33997.0 3.028.025.329.0
2016-Aug-15 12:29N 22°07' E 114°15'1111.9
2016-Aug-15 11:33N 22°15' E 114°07'1110.8
2016-Aug-15 10:32N 22°21' E 113°57'7 7.2
2016-Aug-15 09:33N 22°27' E 113°53'0 0.2
2016-Aug-15 08:29N 22°27' E 113°53'0 0.0
2016-Aug-15 07:32N 22°27' E 113°53'0 0.0
2016-Aug-15 06:26N 22°27' E 113°53'0 0.0
2016-Aug-15 04:32N 22°27' E 113°53'0 0.0
2016-Aug-15 03:32N 22°27' E 113°53'0 0.1
2016-Aug-15 02:29N 22°27' E 113°53'0 0.1
2016-Aug-15 01:32N 22°27' E 113°53'0 0.0
2016-Aug-15 00:29N 22°27' E 113°53'0 0.0
2016-Aug-14 23:32N 22°27' E 113°53'0 0.0
2016-Aug-14 22:29N 22°27' E 113°53'0 0.0
2016-Aug-14 21:32N 22°27' E 113°53'0 0.0
2016-Aug-14 20:32N 22°27' E 113°53'0 0.0
2016-Aug-14 19:32N 22°27' E 113°53'1 0.7
2016-Aug-14 18:33N 22°26' E 113°53'6 5.6
2016-Aug-14 17:33N 22°21' E 113°56'1010.6
2016-Aug-14 16:33N 22°19' E 114°07'0 0.4
2016-Aug-14 15:23N 22°20' E 114°08'0 0.0
2016-Aug-14 14:29N 22°20' E 114°08'0 0.0
2016-Aug-14 13:26N 22°20' E 114°08'  
Track history (hours):
 
Tides and Currents Weather Stations Pressure Air Temp Water Temp Dewpoint Dewpoint Depression Visibility Wind Speed Wind Dir Waves Ship Positions

Ever Decent

Last reported at 2016-Aug-24 13:00 UTC. Time now 2016-Aug-24 21:32 UTC.
Position N 02°42' E 090°06'.

Length 294 m; draft 12.1 m.

Type: Ship (hazmat cat D). MMSI: 564904000.

Wind from 260 at 27 knots

Waves 1.5 meters (5 feet), 9 second period

Barometer 1008.0 mb
Air temperature 28.0 ° C
Visibility: greater than 5.4 NM
Dewpoint 26.7 ° C
Water temperature 26.0 ° C

Date/timePositionNaut miles runAvg speedWind from/ knotsBaromVisibWave heightAir tempDewpointWater temp
2016-Aug-24 13:00N 02°42' E 090°06'8514.2 260 / 271008.0 5.4 1.528.026.726.0
2016-Aug-24 07:00N 03°36' E 091°12'10517.5 270 / 281007.0 5.4 3.028.025.328.0
2016-Aug-24 01:00N 04°30' E 092°42'6512.9 260 / 281007.0 5.4 3.527.025.7
2016-Aug-23 20:00N 05°06' E 093°36'18012.8 270 / 261007.0 5.4 3.027.025.728.0
2016-Aug-23 06:00N 05°54' E 096°30'   270 / 281008.010.8 3.030.027.429.0
2016-Aug-20 07:28N 01°54' E 102°24'1515.7
2016-Aug-20 06:32N 01°48' E 102°38'7411.4
2016-Aug-20 00:03N 01°17' E 103°45'0 0.3
2016-Aug-19 23:11N 01°17' E 103°46'0 0.1
2016-Aug-19 22:29N 01°17' E 103°45'0 0.0
2016-Aug-19 19:21N 01°17' E 103°45'0 0.0
2016-Aug-19 13:30N 01°17' E 103°45'0 0.0
2016-Aug-19 12:30N 01°17' E 103°45'0 0.0
2016-Aug-19 11:30N 01°17' E 103°45'0 0.1
2016-Aug-19 10:24N 01°17' E 103°46'0 0.2
2016-Aug-19 09:33N 01°17' E 103°45'2 2.1
2016-Aug-19 08:33N 01°15' E 103°46'5 4.7
2016-Aug-19 07:33N 01°12' E 103°50'7 7.5
2016-Aug-19 06:33N 01°15' E 103°57'9 9.0
2016-Aug-19 05:31N 01°17' E 104°06'34014.5
2016-Aug-18 06:00N 06°06' E 107°06'31915.9 200 / 241006.010.8 3.030.027.429.0
2016-Aug-17 10:00N 10°48' E 109°36'6315.6 230 / 241004.0 5.4 3.029.026.3
2016-Aug-17 06:00N 11°48' E 109°54'37616.4 210 / 381002.0 5.4 4.028.025.328.0
2016-Aug-16 07:00N 17°48' E 111°48'29315.9 230 / 33997.0 3.028.025.329.0
2016-Aug-15 12:29N 22°07' E 114°15'1111.9
2016-Aug-15 11:33N 22°15' E 114°07'1110.8
2016-Aug-15 10:32N 22°21' E 113°57'7 7.2
2016-Aug-15 09:33N 22°27' E 113°53'0 0.2
2016-Aug-15 08:29N 22°27' E 113°53'0 0.0
2016-Aug-15 07:32N 22°27' E 113°53'0 0.0
2016-Aug-15 06:26N 22°27' E 113°53'0 0.0
2016-Aug-15 04:32N 22°27' E 113°53'0 0.0
2016-Aug-15 03:32N 22°27' E 113°53'0 0.1
2016-Aug-15 02:29N 22°27' E 113°53'0 0.1
2016-Aug-15 01:32N 22°27' E 113°53'0 0.0
2016-Aug-15 00:29N 22°27' E 113°53'0 0.0
2016-Aug-14 23:32N 22°27' E 113°53'0 0.0
2016-Aug-14 22:29N 22°27' E 113°53'0 0.0
2016-Aug-14 21:32N 22°27' E 113°53'0 0.0
2016-Aug-14 20:32N 22°27' E 113°53'0 0.0
2016-Aug-14 19:32N 22°27' E 113°53'1 0.7
2016-Aug-14 18:33N 22°26' E 113°53'6 5.6
2016-Aug-14 17:33N 22°21' E 113°56'1010.6
2016-Aug-14 16:33N 22°19' E 114°07'0 0.4
2016-Aug-14 15:23N 22°20' E 114°08'0 0.0
2016-Aug-14 14:29N 22°20' E 114°08'0 0.0
2016-Aug-14 13:26N 22°20' E 114°08'  

Dump ship's entire track history